Time;durP1;ratioP1;P1;durP2;ratioP2;P2;SDS_P1;SDS_P2;PMS_P1;PMS_P2;Temp;Humidity;BMP_temperature;BMP_pressure;BME280_temperature;BME280_humidity;BME280_pressure;Samples;Min_cycle;Max_cycle;Signal;HPM_P1;HPM_P2
2022/11/29 00:00:30;;;;;;;68.53;27.85;;;;;;;2.18;100.00;101091.31;5051678;28;20017;-65
2022/11/29 00:02:56;;;;;;;62.92;26.90;;;;;;;2.09;100.00;101081.09;5064465;28;20025;-64
2022/11/29 00:05:22;;;;;;;55.33;26.48;;;;;;;2.15;100.00;101078.19;5051575;28;20044;-65
2022/11/29 00:07:48;;;;;;;53.55;25.05;;;;;;;2.08;100.00;101065.28;5061057;28;20028;-65
2022/11/29 00:10:13;;;;;;;54.22;26.55;;;;;;;2.11;100.00;101079.25;5068925;28;20033;-64
2022/11/29 00:12:39;;;;;;;56.65;26.45;;;;;;;2.14;100.00;101076.50;5066198;28;20037;-65
2022/11/29 00:15:05;;;;;;;56.72;27.48;;;;;;;2.06;100.00;101049.47;5069208;28;20024;-64
2022/11/29 00:17:30;;;;;;;62.58;27.98;;;;;;;2.14;100.00;101070.31;5069440;28;20060;-65
2022/11/29 00:19:56;;;;;;;52.83;27.05;;;;;;;2.07;100.00;101051.19;5063360;28;20055;-64
2022/11/29 00:22:23;;;;;;;60.80;24.90;;;;;;;2.13;100.00;101068.63;5065949;28;20032;-64
2022/11/29 00:24:49;;;;;;;44.33;22.58;;;;;;;1.99;100.00;101050.66;5068220;28;20028;-64
2022/11/29 00:27:15;;;;;;;50.08;24.70;;;;;;;2.06;100.00;101054.75;5065666;28;20056;-64
2022/11/29 00:29:40;;;;;;;45.92;23.20;;;;;;;2.13;100.00;101065.97;5063411;28;20074;-65
2022/11/29 00:32:06;;;;;;;46.03;20.92;;;;;;;1.98;100.00;101038.38;5057538;28;20074;-65
2022/11/29 00:34:31;;;;;;;51.95;22.90;;;;;;;1.96;100.00;101034.91;5070023;28;20111;-65
2022/11/29 00:36:57;;;;;;;48.22;23.42;;;;;;;2.02;100.00;101050.53;5068016;28;20039;-70
2022/11/29 00:39:22;;;;;;;46.58;23.13;;;;;;;2.00;100.00;101041.78;5064644;28;20033;-70
2022/11/29 00:41:47;;;;;;;44.25;23.35;;;;;;;1.96;100.00;101040.19;5069114;28;20473;-71
2022/11/29 00:44:13;;;;;;;40.53;21.23;;;;;;;1.87;100.00;101023.84;5068618;28;20020;-71
2022/11/29 00:46:38;;;;;;;46.60;22.95;;;;;;;1.91;100.00;101042.16;5066979;28;20032;-70
2022/11/29 00:49:04;;;;;;;41.05;22.70;;;;;;;1.95;100.00;101037.63;5067944;28;20137;-71
2022/11/29 00:51:30;;;;;;;48.17;23.80;;;;;;;1.93;100.00;101037.69;5067963;28;20086;-71
2022/11/29 00:53:55;;;;;;;47.92;23.00;;;;;;;1.91;100.00;101020.16;5067117;28;20028;-71
2022/11/29 00:56:21;;;;;;;43.25;22.00;;;;;;;1.88;100.00;101015.88;5067919;28;20112;-71
2022/11/29 00:58:48;;;;;;;47.25;22.83;;;;;;;1.92;100.00;101021.88;5068430;28;20024;-71
2022/11/29 01:01:13;;;;;;;47.92;22.80;;;;;;;2.02;100.00;101041.72;5058942;28;20032;-71
2022/11/29 01:03:39;;;;;;;47.97;24.75;;;;;;;1.94;100.00;101020.88;5059825;28;20035;-70
2022/11/29 01:06:07;;;;;;;50.20;23.88;;;;;;;1.95;100.00;101016.47;5067689;28;20063;-71
2022/11/29 01:08:33;;;;;;;47.47;24.08;;;;;;;1.96;100.00;101029.63;5066466;28;20069;-71
2022/11/29 01:11:07;;;;;;;48.42;25.45;;;;;;;1.94;100.00;101026.16;5066250;28;20111;-70
2022/11/29 01:13:33;;;;;;;50.08;25.55;;;;;;;1.91;100.00;101033.38;5060628;28;20047;-71
2022/11/29 01:15:59;;;;;;;58.53;24.33;;;;;;;1.92;100.00;101028.03;5064612;28;20043;-70
2022/11/29 01:18:26;;;;;;;51.67;23.35;;;;;;;1.91;100.00;101030.75;5061743;28;20036;-71
2022/11/29 01:21:02;;;;;;;50.20;25.48;;;;;;;1.90;100.00;101034.28;5067669;28;20038;-70
2022/11/29 01:23:28;;;;;;;53.45;24.42;;;;;;;1.91;100.00;101041.31;5068076;28;20067;-71
2022/11/29 01:26:05;;;;;;;52.10;25.20;;;;;;;1.86;100.00;101035.34;5067443;28;20020;-71
2022/11/29 01:28:32;;;;;;;62.20;24.08;;;;;;;1.89;100.00;101033.44;5068006;28;20030;-71
2022/11/29 01:30:57;;;;;;;56.90;25.20;;;;;;;1.91;100.00;101028.09;5067714;28;20520;-71
2022/11/29 01:33:23;;;;;;;47.47;24.88;;;;;;;1.81;100.00;101019.66;5067442;28;20034;-71
2022/11/29 01:35:53;;;;;;;61.17;25.00;;;;;;;1.87;100.00;101024.69;5065191;28;20027;-71
2022/11/29 01:38:20;;;;;;;52.92;23.65;;;;;;;1.87;100.00;101019.41;5067377;28;20074;-71
2022/11/29 01:40:56;;;;;;;48.80;24.85;;;;;;;1.82;100.00;101016.13;5065819;28;20296;-71
2022/11/29 01:43:22;;;;;;;47.45;22.77;;;;;;;1.87;100.00;101030.00;5067191;28;20028;-71
2022/11/29 01:45:48;;;;;;;53.35;26.38;;;;;;;1.82;100.00;101017.88;5067066;28;20094;-71
2022/11/29 01:48:15;;;;;;;51.72;25.17;;;;;;;1.86;100.00;101017.69;5067521;28;20508;-70
2022/11/29 01:50:41;;;;;;;51.85;23.98;;;;;;;1.89;100.00;101014.94;5066739;28;20103;-71
2022/11/29 01:53:14;;;;;;;48.13;22.98;;;;;;;1.86;100.00;101007.13;5067208;28;20036;-70
2022/11/29 01:55:46;;;;;;;87.13;25.02;;;;;;;1.83;100.00;101001.97;5066933;28;20681;-70
2022/11/29 01:58:14;;;;;;;51.33;22.80;;;;;;;1.84;100.00;101008.97;5062628;28;20047;-71
2022/11/29 02:00:39;;;;;;;53.78;26.30;;;;;;;1.79;100.00;100999.50;5049791;28;20031;-70
2022/11/29 02:03:14;;;;;;;60.78;22.65;;;;;;;1.84;100.00;101008.97;5066860;28;20028;-71
2022/11/29 02:05:44;;;;;;;46.78;22.70;;;;;;;1.78;100.00;101013.66;5066785;28;20538;-71
2022/11/29 02:08:12;;;;;;;47.92;22.58;;;;;;;1.70;100.00;101000.75;5066522;28;20056;-71
2022/11/29 02:10:58;;;;;;;50.15;24.48;;;;;;;1.74;100.00;101006.78;5066534;28;20033;-71
2022/11/29 02:13:45;;;;;;;48.28;23.58;;;;;;;1.68;100.00;101005.22;5066623;28;20052;-70
2022/11/29 02:16:17;;;;;;;53.22;24.75;;;;;;;1.65;100.00;101002.69;5066219;28;20452;-71
2022/11/29 02:18:58;;;;;;;68.53;24.90;;;;;;;1.68;100.00;101007.03;5066537;28;20042;-65
2022/11/29 02:21:29;;;;;;;47.78;22.80;;;;;;;1.70;100.00;101015.72;5065120;28;20028;-65
2022/11/29 02:24:32;;;;;;;68.03;23.88;;;;;;;1.68;100.00;101009.66;5065556;28;20421;-65
2022/11/29 02:27:29;;;;;;;48.08;23.88;;;;;;;1.66;100.00;101007.09;5066180;28;20055;-65
2022/11/29 02:30:04;;;;;;;47.83;22.88;;;;;;;1.68;100.00;101013.16;5064116;28;20102;-65
2022/11/29 02:33:07;;;;;;;57.45;23.02;;;;;;;1.62;100.00;101007.25;5065153;28;20032;-65
2022/11/29 02:35:35;;;;;;;56.88;22.95;;;;;;;1.62;100.00;101002.81;5045996;28;20037;-65
2022/11/29 02:38:26;;;;;;;63.63;24.98;;;;;;;1.63;100.00;101011.63;5065914;28;20028;-65
2022/11/29 02:41:00;;;;;;;55.65;24.38;;;;;;;1.68;100.00;101029.00;5065894;28;20059;-65
2022/11/29 02:43:47;;;;;;;87.13;24.50;;;;;;;1.65;100.00;101017.72;5064666;28;20028;-65
2022/11/29 02:46:18;;;;;;;51.60;24.05;;;;;;;1.68;100.00;101013.16;5065979;28;20039;-65
2022/11/29 02:48:51;;;;;;;60.83;25.17;;;;;;;1.67;100.00;101018.50;5065408;28;20056;-65
2022/11/29 02:51:20;;;;;;;66.95;26.38;;;;;;;1.62;100.00;101028.41;5065588;28;20067;-65
2022/11/29 02:53:56;;;;;;;61.33;24.88;;;;;;;1.56;100.00;101010.16;5066665;28;20122;-65
2022/11/29 02:56:39;;;;;;;61.97;24.67;;;;;;;1.56;100.00;101007.50;5064485;28;20724;-64
2022/11/29 02:59:11;;;;;;;62.53;24.35;;;;;;;1.70;100.00;101021.03;5066232;28;20032;-65
2022/11/29 03:01:58;;;;;;;63.10;26.52;;;;;;;1.71;100.00;101023.59;5065885;28;20036;-65
2022/11/29 03:04:42;;;;;;;52.47;24.45;;;;;;;1.70;100.00;101019.25;5065943;28;20047;-65
2022/11/29 03:07:14;;;;;;;57.90;25.23;;;;;;;1.75;100.00;101019.94;5065326;28;20020;-65
2022/11/29 03:09:39;;;;;;;61.63;25.63;;;;;;;1.80;100.00;101025.00;5064684;28;20036;-65
2022/11/29 03:12:25;;;;;;;57.92;25.05;;;;;;;1.83;100.00;101028.41;5063550;28;20032;-65
2022/11/29 03:14:53;;;;;;;69.93;26.15;;;;;;;1.79;100.00;101032.09;5063367;28;20499;-65
2022/11/29 03:17:28;;;;;;;57.58;26.23;;;;;;;1.72;100.00;101009.47;5065783;28;20066;-65
2022/11/29 03:20:12;;;;;;;61.88;26.45;;;;;;;1.80;100.00;101033.81;5064612;28;20500;-65
2022/11/29 03:22:55;;;;;;;68.28;25.45;;;;;;;1.81;100.00;101035.53;5065686;28;20451;-65
2022/11/29 03:25:50;;;;;;;59.77;24.63;;;;;;;1.82;100.00;101020.53;5065733;28;20024;-65
2022/11/29 03:28:30;;;;;;;70.90;24.40;;;;;;;1.82;100.00;101031.97;5059016;28;20484;-70
2022/11/29 03:31:30;;;;;;;59.60;25.75;;;;;;;1.79;100.00;101024.16;5065751;28;20376;-71
2022/11/29 03:34:20;;;;;;;55.13;23.00;;;;;;;1.85;100.00;101025.69;5065711;28;20016;-71
2022/11/29 03:36:58;;;;;;;59.22;25.92;;;;;;;1.85;100.00;101015.13;5066625;28;20036;-71
2022/11/29 03:39:48;;;;;;;57.53;27.73;;;;;;;1.82;100.00;101031.09;5069715;28;20438;-71
2022/11/29 03:42:52;;;;;;;80.40;27.63;;;;;;;1.79;100.00;101023.28;5069508;28;20076;-64
2022/11/29 03:45:38;;;;;;;76.65;27.90;;;;;;;1.74;100.00;101012.91;5069576;28;20049;-64
2022/11/29 03:48:10;;;;;;;63.92;28.92;;;;;;;1.86;100.00;101023.00;5057192;28;20049;-64
2022/11/29 03:50:50;;;;;;;60.40;26.48;;;;;;;1.86;100.00;101017.69;5070393;28;20444;-64
2022/11/29 03:53:51;;;;;;;65.85;28.20;;;;;;;1.91;100.00;101030.75;5063358;28;20036;-64
2022/11/29 03:56:43;;;;;;;68.88;28.33;;;;;;;1.91;100.00;101034.22;5067829;28;20081;-64
2022/11/29 03:59:39;;;;;;;61.95;28.23;;;;;;;1.92;100.00;101030.69;5067513;28;20107;-65
2022/11/29 04:02:33;;;;;;;69.82;29.80;;;;;;;2.01;100.00;101032.94;5069818;28;20551;-64
2022/11/29 04:05:36;;;;;;;63.25;28.55;;;;;;;1.99;100.00;101031.25;5048659;28;20135;-64
2022/11/29 04:08:29;;;;;;;69.50;29.90;;;;;;;2.00;100.00;101033.00;5065044;28;20481;-65
2022/11/29 04:11:17;;;;;;;75.05;31.65;;;;;;;1.98;100.00;101027.78;5060063;28;20020;-64
2022/11/29 04:14:26;;;;;;;70.78;27.65;;;;;;;2.01;100.00;101042.66;5069608;28;20574;-64
2022/11/29 04:17:19;;;;;;;70.57;29.02;;;;;;;1.98;100.00;101034.84;5058296;28;20508;-65
2022/11/29 04:20:11;;;;;;;66.70;31.33;;;;;;;1.96;100.00;101045.50;5066776;28;20487;-65
2022/11/29 04:22:49;;;;;;;60.90;27.92;;;;;;;2.03;100.00;101041.66;5069504;28;20090;-65
2022/11/29 04:25:31;;;;;;;76.50;29.27;;;;;;;2.00;100.00;101040.94;5068514;28;20077;-65
2022/11/29 04:28:35;;;;;;;68.53;28.10;;;;;;;2.01;100.00;101043.53;5069297;28;20457;-66
2022/11/29 04:31:16;;;;;;;67.25;27.42;;;;;;;2.04;100.00;101038.06;5056997;28;20044;-66
2022/11/29 04:34:04;;;;;;;54.47;25.90;;;;;;;1.99;100.00;101031.25;5069643;28;20056;-65
2022/11/29 04:36:54;;;;;;;58.05;26.40;;;;;;;2.04;100.00;101043.38;5069733;28;20048;-66
2022/11/29 04:39:37;;;;;;;60.55;26.83;;;;;;;2.01;100.00;101032.94;5069661;28;20143;-66
2022/11/29 04:42:32;;;;;;;61.47;26.85;;;;;;;2.05;100.00;101031.00;5069393;28;20024;-66
2022/11/29 04:45:11;;;;;;;64.10;26.85;;;;;;;2.13;100.00;101029.75;5067903;28;20072;-66
2022/11/29 04:47:55;;;;;;;81.47;29.77;;;;;;;2.13;100.00;101043.00;5068705;28;20541;-65
2022/11/29 04:50:24;;;;;;;42.83;19.55;;;;;;;2.09;100.00;101032.59;5068167;28;20033;-66
2022/11/29 04:53:20;;;;;;;58.90;28.00;;;;;;;2.04;100.00;101030.13;5068998;28;20041;-65
2022/11/29 04:55:56;;;;;;;59.40;28.77;;;;;;;2.11;100.00;101039.56;5068882;28;20468;-65
2022/11/29 04:58:37;;;;;;;62.08;26.30;;;;;;;2.10;100.00;101035.19;5069084;28;20024;-65
2022/11/29 05:01:28;;;;;;;67.43;27.63;;;;;;;2.10;100.00;101048.41;5068726;28;20054;-66
2022/11/29 05:04:18;;;;;;;65.88;28.80;;;;;;;2.13;100.00;101050.09;5067258;28;20341;-66
2022/11/29 05:06:52;;;;;;;65.50;27.98;;;;;;;2.10;100.00;101055.50;5069047;28;20048;-66
2022/11/29 05:09:33;;;;;;;66.40;29.08;;;;;;;1.97;100.00;101041.91;5069048;28;20443;-65
2022/11/29 05:12:13;;;;;;;64.00;30.55;;;;;;;2.10;100.00;101055.50;5068387;28;20640;-65
2022/11/29 05:14:57;;;;;;;59.63;26.90;;;;;;;2.11;100.00;101049.28;5059498;28;20082;-65
2022/11/29 05:17:30;;;;;;;67.90;29.10;;;;;;;2.09;100.00;101052.00;5062128;28;20484;-65
2022/11/29 05:20:39;;;;;;;74.00;29.13;;;;;;;2.01;100.00;101038.25;5067745;28;20021;-65
2022/11/29 05:23:29;;;;;;;89.38;29.15;;;;;;;2.12;100.00;101057.16;5065639;28;21024;-65
2022/11/29 05:26:00;;;;;;;62.40;28.90;;;;;;;2.13;100.00;101063.31;5060350;28;20111;-65
2022/11/29 05:29:00;;;;;;;61.35;29.15;;;;;;;2.15;100.00;101056.16;5047131;28;20040;-66
2022/11/29 05:31:47;;;;;;;64.07;29.30;;;;;;;2.15;100.00;101054.38;5051845;28;20021;-65
2022/11/29 05:34:29;;;;;;;63.33;28.17;;;;;;;2.10;100.00;101043.13;5065645;28;20032;-65
2022/11/29 05:37:01;;;;;;;69.90;27.85;;;;;;;2.07;100.00;101034.47;5056325;28;20040;-65
2022/11/29 05:40:13;;;;;;;58.53;27.33;;;;;;;2.14;100.00;101051.81;5067641;28;20039;-65
2022/11/29 05:42:47;;;;;;;67.82;28.33;;;;;;;2.22;100.00;101055.84;5063961;28;20796;-65
2022/11/29 05:45:16;;;;;;;63.22;28.98;;;;;;;2.25;100.00;101065.44;5055336;28;20032;-66
2022/11/29 05:47:51;;;;;;;66.63;29.60;;;;;;;2.25;100.00;101066.31;5051380;28;20162;-66
2022/11/29 05:50:46;;;;;;;66.18;29.50;;;;;;;2.22;100.00;101066.44;5050138;28;20485;-65
2022/11/29 05:53:47;;;;;;;59.72;27.55;;;;;;;2.11;100.00;101055.44;5053938;28;20106;-65
2022/11/29 05:56:25;;;;;;;61.72;28.00;;;;;;;2.20;100.00;101065.63;5054554;28;20032;-66
2022/11/29 05:58:57;;;;;;;64.55;28.05;;;;;;;2.25;100.00;101079.53;5065557;28;20039;-65
2022/11/29 06:01:42;;;;;;;64.00;26.98;;;;;;;2.24;100.00;101077.81;5065806;28;20024;-66
2022/11/29 06:04:27;;;;;;;65.80;29.42;;;;;;;2.18;100.00;101078.06;5055220;28;20083;-66
2022/11/29 06:07:31;;;;;;;64.28;28.85;;;;;;;2.26;100.00;101081.25;5056787;28;20461;-65
2022/11/29 06:10:10;;;;;;;60.30;27.60;;;;;;;2.23;100.00;101085.81;5046809;28;20036;-65
2022/11/29 06:12:36;;;;;;;65.15;27.75;;;;;;;2.17;100.00;101070.19;5047179;28;20033;-65
2022/11/29 06:15:22;;;;;;;58.80;25.83;;;;;;;2.33;100.00;101092.44;5060551;28;20029;-65
2022/11/29 06:17:59;;;;;;;62.35;26.83;;;;;;;2.29;100.00;101090.88;5066139;28;20510;-65
2022/11/29 06:20:43;;;;;;;59.42;26.13;;;;;;;2.33;100.00;101092.44;5066988;28;20024;-65
2022/11/29 06:23:42;;;;;;;52.65;25.58;;;;;;;2.33;100.00;101103.88;5046101;28;20531;-66
2022/11/29 06:40:43;;;;;;;58.65;29.52;;;;;;;2.33;100.00;101097.75;5128358;27;20383;-69
2022/11/29 06:43:08;;;;;;;58.78;28.40;;;;;;;2.21;100.00;101066.50;5111061;27;20039;-69
2022/11/29 06:45:34;;;;;;;61.95;28.77;;;;;;;2.39;100.00;101098.34;5105705;28;20028;-68
2022/11/29 06:48:03;;;;;;;62.80;29.10;;;;;;;2.43;100.00;101114.97;5104695;28;20080;-68
2022/11/29 06:50:50;;;;;;;59.65;28.42;;;;;;;2.44;100.00;101106.09;5113305;28;20036;-69
2022/11/29 06:53:34;;;;;;;55.75;26.27;;;;;;;2.46;100.00;101111.31;5109289;28;20031;-69
2022/11/29 06:56:05;;;;;;;60.25;26.50;;;;;;;2.49;100.00;101113.84;5107300;28;20471;-74
2022/11/29 06:58:49;;;;;;;57.45;26.55;;;;;;;2.43;100.00;101113.16;5115576;28;20023;-72
2022/11/29 07:01:40;;;;;;;65.63;29.00;;;;;;;2.42;100.00;101116.75;5129526;28;20038;-73
2022/11/29 07:04:32;;;;;;;59.70;27.10;;;;;;;2.43;100.00;101110.50;5130115;27;20364;-74
2022/11/29 07:06:58;;;;;;;54.13;26.73;;;;;;;2.47;100.00;101115.66;5128645;28;20368;-73
2022/11/29 07:09:33;;;;;;;55.53;27.38;;;;;;;2.20;100.00;101070.91;5129306;27;20038;-72
2022/11/29 07:11:59;;;;;;;57.47;26.67;;;;;;;2.42;100.00;101107.97;5121884;27;20481;-73
2022/11/29 07:14:25;;;;;;;50.38;24.35;;;;;;;2.51;100.00;101122.59;5107850;28;20041;-73
2022/11/29 07:17:14;;;;;;;54.10;24.98;;;;;;;2.47;100.00;101111.25;5107499;28;20032;-73
2022/11/29 07:20:15;;;;;;;56.97;24.92;;;;;;;2.51;100.00;101106.69;5107446;28;20631;-73
2022/11/29 07:22:49;;;;;;;57.28;25.38;;;;;;;2.46;100.00;101096.31;5118133;28;20035;-73
2022/11/29 07:25:33;;;;;;;59.00;25.90;;;;;;;2.50;100.00;101107.59;5120855;27;20027;-73
2022/11/29 07:28:16;;;;;;;64.38;25.55;;;;;;;2.50;100.00;101110.25;5106007;28;20024;-73
2022/11/29 07:30:50;;;;;;;55.50;24.73;;;;;;;2.50;100.00;101100.53;5111720;28;20027;-73
2022/11/29 07:33:30;;;;;;;55.20;24.45;;;;;;;2.49;100.00;101100.59;5127122;27;20110;-72
2022/11/29 07:36:29;;;;;;;55.40;24.23;;;;;;;2.51;100.00;101101.41;5110109;27;20026;-72
2022/11/29 07:39:15;;;;;;;56.10;24.45;;;;;;;2.50;100.00;101107.59;5095247;28;20491;-73
2022/11/29 07:41:59;;;;;;;54.83;24.35;;;;;;;2.49;100.00;101106.75;5093042;28;20546;-73
2022/11/29 07:44:36;;;;;;;51.00;22.42;;;;;;;2.41;100.00;101111.50;5093276;28;20436;-72
2022/11/29 07:47:04;;;;;;;57.05;24.00;;;;;;;2.45;100.00;101113.09;5102039;28;20116;-70
2022/11/29 07:49:30;;;;;;;47.42;22.20;;;;;;;2.53;100.00;101118.06;5112046;28;20375;-73
2022/11/29 07:51:55;;;;;;;51.45;22.42;;;;;;;2.50;100.00;101128.78;5093468;28;20028;-73
2022/11/29 07:54:22;;;;;;;48.92;20.92;;;;;;;2.47;100.00;101115.66;5106172;28;20046;-72
2022/11/29 07:56:48;;;;;;;52.67;22.38;;;;;;;2.42;100.00;101115.03;5105503;28;20031;-69
2022/11/29 07:59:13;;;;;;;55.00;23.88;;;;;;;2.48;100.00;101126.19;5092138;28;20032;-69
2022/11/29 08:01:40;;;;;;;57.38;23.67;;;;;;;2.48;100.00;101128.00;5091525;28;20016;-69
2022/11/29 08:04:06;;;;;;;48.75;21.35;;;;;;;2.45;100.00;101122.84;5092210;28;20028;-69
2022/11/29 08:06:32;;;;;;;50.22;23.75;;;;;;;2.48;100.00;101122.72;5096601;28;20036;-69
2022/11/29 08:08:59;;;;;;;54.22;25.08;;;;;;;2.48;100.00;101123.56;5092257;28;20077;-69
2022/11/29 08:11:24;;;;;;;50.85;21.92;;;;;;;2.49;100.00;101129.72;5093804;28;20034;-69
2022/11/29 08:13:55;;;;;;;43.53;20.70;;;;;;;2.46;100.00;101119.25;5092475;28;20410;-69
2022/11/29 08:16:20;;;;;;;40.80;18.75;;;;;;;2.47;100.00;101118.31;5110392;28;20074;-69
2022/11/29 08:18:46;;;;;;;46.10;19.60;;;;;;;2.39;100.00;101108.09;5100432;28;20237;-69
2022/11/29 08:21:16;;;;;;;41.60;19.88;;;;;;;2.48;100.00;101112.13;5086864;28;20392;-69
2022/11/29 08:23:42;;;;;;;37.83;18.70;;;;;;;2.38;100.00;101088.69;5091841;28;20032;-69
2022/11/29 08:26:07;;;;;;;38.95;19.30;;;;;;;2.26;100.00;101083.91;5092204;28;20031;-69
2022/11/29 08:28:33;;;;;;;42.28;20.80;;;;;;;2.35;100.00;101099.41;5097409;28;20034;-69
2022/11/29 08:31:04;;;;;;;46.95;21.10;;;;;;;2.43;100.00;101120.25;5090678;28;20032;-69
2022/11/29 08:33:30;;;;;;;44.75;20.70;;;;;;;2.42;100.00;101110.59;5090750;28;20043;-69
2022/11/29 08:36:02;;;;;;;48.45;19.77;;;;;;;2.43;100.00;101122.91;5096161;28;20036;-69
2022/11/29 08:38:27;;;;;;;43.13;20.48;;;;;;;2.39;100.00;101127.44;5096702;28;20063;-68
2022/11/29 08:40:53;;;;;;;48.45;20.73;;;;;;;2.00;100.00;101055.00;5103927;28;20101;-69
2022/11/29 08:43:18;;;;;;;45.92;19.92;;;;;;;2.42;100.00;101117.66;5092032;28;20149;-69
2022/11/29 08:45:44;;;;;;;47.40;22.67;;;;;;;2.42;100.00;101115.91;5091465;28;20027;-69
2022/11/29 08:48:09;;;;;;;42.72;21.15;;;;;;;2.38;100.00;101097.56;5093183;28;20038;-69
2022/11/29 08:50:34;;;;;;;42.42;21.20;;;;;;;2.50;100.00;101127.00;5091569;28;20077;-70
2022/11/29 08:55:45;;;;;;;51.35;21.83;;;;;;;2.53;100.00;101128.66;5093337;28;20633;-74
2022/11/29 08:58:13;;;;;;;52.42;22.20;;;;;;;2.53;100.00;101123.38;5097095;28;20028;-72
2022/11/29 09:00:41;;;;;;;53.50;22.80;;;;;;;2.47;100.00;101115.66;5112053;28;20499;-73
2022/11/29 09:05:52;;;;;;;47.88;20.90;;;;;;;2.45;100.00;101105.16;5092957;28;20089;-72
2022/11/29 09:08:18;;;;;;;54.80;24.38;;;;;;;2.57;100.00;101139.06;5091537;28;20031;-72
2022/11/29 09:10:44;;;;;;;55.47;23.58;;;;;;;2.52;100.00;101114.56;5092823;28;20698;-73
2022/11/29 09:13:10;;;;;;;50.45;23.25;;;;;;;2.64;100.00;101129.09;5092650;28;20545;-73
2022/11/29 09:15:41;;;;;;;58.22;23.98;;;;;;;2.55;100.00;101106.50;5093053;28;20475;-73
2022/11/29 09:18:07;;;;;;;60.08;22.98;;;;;;;2.71;100.00;101125.25;5093142;28;20480;-72
2022/11/29 09:20:32;;;;;;;60.63;22.88;;;;;;;2.71;100.00;101120.78;5093093;28;20046;-70
2022/11/29 09:22:59;;;;;;;58.17;24.90;;;;;;;2.50;100.00;101071.41;5091708;28;20040;-69
2022/11/29 09:25:25;;;;;;;62.33;25.92;;;;;;;2.80;100.00;101119.56;5091648;28;20044;-69
2022/11/29 09:27:50;;;;;;;58.22;24.58;;;;;;;2.82;100.00;101118.56;5091497;28;20047;-69
2022/11/29 09:30:16;;;;;;;57.85;23.85;;;;;;;2.79;100.00;101102.78;5091405;28;20049;-69
2022/11/29 09:32:42;;;;;;;62.85;25.35;;;;;;;2.85;100.00;101112.25;5091649;28;20020;-69
2022/11/29 09:35:07;;;;;;;63.95;25.02;;;;;;;2.91;100.00;101127.88;5091516;28;20059;-69
2022/11/29 09:37:35;;;;;;;58.38;26.10;;;;;;;2.88;100.00;101120.94;5091448;28;20032;-68
2022/11/29 09:40:02;;;;;;;63.88;24.92;;;;;;;2.92;100.00;101125.16;5091149;28;20551;-68
2022/11/29 09:42:39;;;;;;;61.03;25.90;;;;;;;2.95;100.00;101119.75;5091270;28;20024;-69
2022/11/29 09:45:18;;;;;;;65.05;28.33;;;;;;;2.93;100.00;101104.84;5091240;28;20081;-69
2022/11/29 09:48:13;;;;;;;72.88;28.90;;;;;;;2.98;100.00;101118.72;5091348;28;20471;-69
2022/11/29 09:50:58;;;;;;;66.75;28.67;;;;;;;3.00;100.00;101114.25;5091282;28;20023;-68
2022/11/29 09:53:54;;;;;;;72.22;29.85;;;;;;;3.05;100.00;101113.09;5091314;28;20487;-69
2022/11/29 09:56:42;;;;;;;82.40;31.27;;;;;;;2.93;100.00;101094.25;5091214;28;20388;-69
2022/11/29 09:59:16;;;;;;;76.95;29.52;;;;;;;3.02;100.00;101105.28;5090914;28;20372;-69
2022/11/29 10:01:50;;;;;;;74.53;28.88;;;;;;;3.10;100.00;101102.31;5089952;28;20031;-69
2022/11/29 10:04:24;;;;;;;79.15;30.05;;;;;;;3.08;100.00;101093.53;5090880;28;20114;-69
2022/11/29 10:06:58;;;;;;;78.07;31.10;;;;;;;3.13;100.00;101097.69;5089667;28;20114;-69
2022/11/29 10:09:24;;;;;;;76.30;31.58;;;;;;;3.14;100.00;101093.28;5091111;28;20384;-69
2022/11/29 10:12:05;;;;;;;73.85;31.63;;;;;;;3.16;100.00;101086.97;5090894;28;20030;-69
2022/11/29 10:14:43;;;;;;;80.05;31.25;;;;;;;3.17;100.00;101083.41;5090877;28;20036;-69
2022/11/29 10:17:25;;;;;;;79.00;31.10;;;;;;;3.26;100.00;101085.63;5089689;28;20089;-69
2022/11/29 10:19:56;;;;;;;85.38;32.90;;;;;;;3.27;100.00;101091.78;5090879;28;20028;-69
2022/11/29 10:22:56;;;;;;;87.20;32.88;;;;;;;3.25;100.00;101088.34;5090828;28;20027;-71
2022/11/29 10:25:28;;;;;;;86.05;33.72;;;;;;;3.31;100.00;101077.47;5070074;28;20056;-70
2022/11/29 10:27:54;;;;;;;86.18;33.40;;;;;;;3.20;100.00;101059.41;5090342;28;20519;-70
2022/11/29 10:30:19;;;;;;;89.05;34.47;;;;;;;3.23;100.00;101047.81;5090727;28;20043;-70
2022/11/29 10:32:49;;;;;;;81.78;32.00;;;;;;;3.40;100.00;101077.03;5090664;28;20031;-69
2022/11/29 10:35:18;;;;;;;83.55;32.33;;;;;;;3.40;100.00;101064.66;5090695;28;20016;-71
2022/11/29 10:37:44;;;;;;;90.68;34.60;;;;;;;3.43;100.00;101059.22;5090193;28;20059;-70
2022/11/29 10:40:17;;;;;;;82.70;32.55;;;;;;;3.52;100.00;101079.97;5089873;28;20131;-70
2022/11/29 10:42:48;;;;;;;80.10;35.10;;;;;;;3.47;100.00;101066.09;5090311;28;20434;-70
2022/11/29 10:45:14;;;;;;;87.13;34.83;;;;;;;3.53;100.00;101076.41;5090153;28;20020;-69
2022/11/29 10:47:39;;;;;;;91.78;35.55;;;;;;;3.40;100.00;101037.28;5090176;28;20028;-70
2022/11/29 10:50:05;;;;;;;87.68;35.28;;;;;;;3.29;100.00;101018.38;5090018;28;20023;-70
2022/11/29 10:52:32;;;;;;;91.05;35.97;;;;;;;3.46;100.00;101043.16;5090181;28;20020;-70
2022/11/29 10:54:58;;;;;;;86.43;36.05;;;;;;;3.74;100.00;101085.97;5090023;28;20510;-68
2022/11/29 10:57:24;;;;;;;82.13;37.08;;;;;;;3.73;100.00;101073.66;5089906;28;20464;-69
2022/11/29 11:00:06;;;;;;;86.20;37.95;;;;;;;3.76;100.00;101072.66;5089732;28;20115;-70
2022/11/29 11:02:32;;;;;;;87.53;36.17;;;;;;;3.79;100.00;101061.88;5089883;28;20516;-70
2022/11/29 11:04:59;;;;;;;83.90;35.47;;;;;;;3.84;100.00;101057.25;5090236;28;20024;-70
2022/11/29 11:07:30;;;;;;;86.53;37.13;;;;;;;3.89;100.00;101063.16;5089868;28;20039;-70
2022/11/29 11:09:56;;;;;;;90.22;35.58;;;;;;;3.93;100.00;101062.06;5089855;28;20027;-71
2022/11/29 11:12:30;;;;;;;88.18;36.03;;;;;;;3.78;100.00;101026.53;5090360;28;20031;-69
2022/11/29 11:15:27;;;;;;;;;;;;;;;3.99;100.00;101059.13;5090906;28;20153;-70
2022/11/29 11:18:03;;;;;;;86.57;36.97;;;;;;;4.01;100.00;101062.56;5093962;28;19912;-69
2022/11/29 11:20:31;;;;;;;88.60;36.72;;;;;;;4.08;100.00;101054.25;5093510;28;20471;-70
2022/11/29 11:23:06;;;;;;;90.75;38.97;;;;;;;4.09;100.00;101049.75;5093464;28;20032;-70
2022/11/29 11:25:38;;;;;;;86.53;36.70;;;;;;;4.14;100.00;101045.09;5093579;28;20522;-70
2022/11/29 11:28:19;;;;;;;83.03;37.45;;;;;;;4.07;100.00;101031.25;5092048;28;20082;-69
2022/11/29 11:31:00;;;;;;;89.40;39.42;;;;;;;4.07;100.00;101018.00;5093195;28;20059;-70
2022/11/29 11:33:30;;;;;;;84.63;36.53;;;;;;;4.14;100.00;101013.25;5093948;28;20478;-70
2022/11/29 11:36:19;;;;;;;85.18;38.22;;;;;;;4.36;100.00;101053.72;5092327;28;20062;-71
2022/11/29 11:38:55;;;;;;;90.07;38.92;;;;;;;4.23;100.00;101024.25;5093358;28;20080;-70
2022/11/29 11:44:52;;;;;;;83.38;38.25;;;;;;;4.41;100.00;101054.31;5093904;28;20038;-69
2022/11/29 11:47:23;;;;;;;86.10;36.65;;;;;;;4.40;100.00;101045.50;5087386;28;20063;-70
2022/11/29 11:50:07;;;;;;;82.15;37.83;;;;;;;4.37;100.00;101032.38;5093150;28;20043;-74
2022/11/29 11:52:38;;;;;;;81.40;37.35;;;;;;;4.42;100.00;101033.00;5093522;28;20100;-73
2022/11/29 11:55:35;;;;;;;85.65;38.08;;;;;;;4.47;100.00;101038.06;5093347;28;20404;-74
2022/11/29 11:58:03;;;;;;;87.90;41.05;;;;;;;4.48;100.00;101040.66;5066396;28;20799;-70
2022/11/29 12:00:49;;;;;;;86.93;40.63;;;;;;;4.49;100.00;101038.88;5091949;28;20028;-69
2022/11/29 12:03:26;;;;;;;97.85;42.60;;;;;;;4.52;100.00;101044.88;5091782;28;20475;-69
2022/11/29 12:05:57;;;;;;;89.30;41.63;;;;;;;4.55;100.00;101038.56;5092986;28;20020;-69
2022/11/29 12:08:25;;;;;;;93.45;40.55;;;;;;;4.56;100.00;101042.91;5091389;28;20560;-70
2022/11/29 12:10:54;;;;;;;96.38;41.72;;;;;;;4.52;100.00;101038.72;5092939;28;20090;-69